createdAt,value
2022-09-27T00:01:48.547Z,2.88
2022-09-27T00:04:17.002Z,3.17
2022-09-27T00:06:45.269Z,3.97
2022-09-27T00:09:13.643Z,3.95
2022-09-27T00:11:42.940Z,4.85
2022-09-27T00:14:12.513Z,3.20
2022-09-27T00:16:42.967Z,6.70
2022-09-27T00:19:13.730Z,3.22
2022-09-27T00:21:42.331Z,4.25
2022-09-27T00:24:13.122Z,4.25
2022-09-27T00:26:41.546Z,3.55
2022-09-27T00:29:10.922Z,3.00
2022-09-27T00:31:39.739Z,3.20
2022-09-27T00:34:12.776Z,4.30
2022-09-27T00:36:41.061Z,6.55
2022-09-27T00:39:09.382Z,5.22
2022-09-27T00:41:38.012Z,3.20
2022-09-27T00:44:26.457Z,3.90
2022-09-27T00:47:00.178Z,4.20
2022-09-27T00:49:30.425Z,4.35
2022-09-27T00:52:03.977Z,3.08
2022-09-27T00:54:35.116Z,4.80
2022-09-27T00:57:04.684Z,3.10
2022-09-27T00:59:35.801Z,2.60
2022-09-27T01:02:06.525Z,6.65
2022-09-27T01:04:35.429Z,5.20
2022-09-27T01:07:03.745Z,6.57
2022-09-27T01:09:32.132Z,3.65
2022-09-27T01:12:06.461Z,3.47
2022-09-27T01:14:43.099Z,3.40
2022-09-27T01:17:19.160Z,3.20
2022-09-27T01:20:06.450Z,3.00
2022-09-27T01:22:39.102Z,4.25
2022-09-27T01:25:13.694Z,3.15
2022-09-27T01:27:58.977Z,3.15
2022-09-27T01:30:30.320Z,3.10
2022-09-27T01:33:07.581Z,3.53
2022-09-27T01:35:38.523Z,3.03
2022-09-27T01:38:13.337Z,6.40
2022-09-27T01:40:45.035Z,3.17
2022-09-27T01:43:33.589Z,4.00
2022-09-27T01:46:06.146Z,2.92
2022-09-27T01:48:53.343Z,3.00
2022-09-27T01:51:25.318Z,4.30
2022-09-27T01:53:55.643Z,3.22
2022-09-27T01:56:25.707Z,2.83
2022-09-27T01:59:07.314Z,3.88
2022-09-27T02:01:38.117Z,3.30
2022-09-27T02:04:08.767Z,6.35
2022-09-27T02:07:00.128Z,3.97
2022-09-27T02:09:32.826Z,5.53
2022-09-27T02:12:22.089Z,3.55
2022-09-27T02:14:54.859Z,3.20
2022-09-27T02:17:29.604Z,3.50
2022-09-27T02:20:02.455Z,4.35
2022-09-27T02:22:39.682Z,3.13
2022-09-27T02:25:13.003Z,2.85
2022-09-27T02:27:46.954Z,4.85
2022-09-27T02:30:16.682Z,4.68
2022-09-27T02:32:49.679Z,3.22
2022-09-27T02:35:20.075Z,2.95
2022-09-27T02:37:48.712Z,2.72
2022-09-27T02:40:17.144Z,7.18
2022-09-27T02:42:46.114Z,5.03
2022-09-27T02:45:15.524Z,4.38
2022-09-27T02:47:58.794Z,5.18
2022-09-27T02:50:42.586Z,5.95
2022-09-27T02:53:37.998Z,3.90
2022-09-27T02:56:25.669Z,7.70
2022-09-27T02:59:17.023Z,4.13
2022-09-27T03:02:06.721Z,3.20
2022-09-27T03:04:52.342Z,6.15
2022-09-27T03:07:22.403Z,3.83
2022-09-27T03:09:52.085Z,8.88
2022-09-27T03:12:25.946Z,5.32
2022-09-27T03:14:54.568Z,3.38
2022-09-27T03:17:52.107Z,5.28
2022-09-27T03:20:40.634Z,3.67
2022-09-27T03:23:14.962Z,2.60
2022-09-27T03:25:43.342Z,6.03
2022-09-27T03:28:14.090Z,3.88
2022-09-27T03:30:43.963Z,6.43
2022-09-27T03:33:13.884Z,6.70
2022-09-27T03:35:48.123Z,4.30
2022-09-27T03:38:18.724Z,5.20
2022-09-27T03:40:47.190Z,4.95
2022-09-27T03:43:15.906Z,3.83
2022-09-27T03:45:47.623Z,3.60
2022-09-27T03:48:15.902Z,3.80
2022-09-27T03:50:44.285Z,3.67
2022-09-27T03:53:12.544Z,2.53
2022-09-27T03:55:42.159Z,6.18
2022-09-27T03:58:10.726Z,3.47
2022-09-27T04:00:41.105Z,3.58
2022-09-27T04:03:09.452Z,3.05
2022-09-27T04:06:00.810Z,3.88
2022-09-27T04:08:37.406Z,2.28
2022-09-27T04:11:08.584Z,2.92
2022-09-27T04:13:37.163Z,2.00
2022-09-27T04:16:05.533Z,2.72
2022-09-27T04:19:01.289Z,2.42
2022-09-27T04:21:38.471Z,3.90
2022-09-27T04:24:08.433Z,2.60
2022-09-27T04:26:38.822Z,2.08
2022-09-27T04:29:12.461Z,1.60
2022-09-27T04:31:47.679Z,2.83
2022-09-27T04:34:49.282Z,2.45
2022-09-27T04:37:23.436Z,2.45
2022-09-27T04:39:55.441Z,1.60
2022-09-27T04:42:28.123Z,0.98
2022-09-27T04:44:56.982Z,1.65
2022-09-27T04:47:25.509Z,2.88
2022-09-27T04:49:53.839Z,1.92
2022-09-27T04:52:22.127Z,0.93
2022-09-27T04:54:51.573Z,2.25
2022-09-27T04:57:19.982Z,3.83
2022-09-27T04:59:51.522Z,1.90
2022-09-27T05:02:20.009Z,1.85
2022-09-27T05:05:01.752Z,4.85
2022-09-27T05:07:36.709Z,2.08
2022-09-27T05:10:10.811Z,2.42
2022-09-27T05:12:39.162Z,3.20
2022-09-27T05:15:09.898Z,4.28
2022-09-27T05:17:58.168Z,2.40
2022-09-27T05:20:59.025Z,4.05
2022-09-27T05:23:33.583Z,1.30
2022-09-27T05:26:05.431Z,2.20
2022-09-27T05:28:35.083Z,3.03
2022-09-27T05:31:05.016Z,2.10
2022-09-27T05:33:34.250Z,2.60
2022-09-27T05:36:20.934Z,1.77
2022-09-27T05:38:49.560Z,2.92
2022-09-27T05:41:20.018Z,1.50
2022-09-27T05:43:48.360Z,2.65
2022-09-27T05:46:17.996Z,1.90
2022-09-27T05:48:48.705Z,3.70
2022-09-27T05:51:17.099Z,4.68
2022-09-27T05:53:45.405Z,3.97
2022-09-27T05:56:22.037Z,2.33
2022-09-27T05:59:16.601Z,2.40
2022-09-27T06:02:04.966Z,4.53
2022-09-27T06:04:54.847Z,2.25
2022-09-27T06:07:41.685Z,2.10
2022-09-27T06:10:18.100Z,3.80
2022-09-27T06:12:46.454Z,1.75
2022-09-27T06:15:39.159Z,1.63
2022-09-27T06:18:10.261Z,2.75
2022-09-27T06:20:39.242Z,3.03
2022-09-27T06:23:08.809Z,1.42
2022-09-27T06:25:38.575Z,2.20
2022-09-27T06:28:34.951Z,2.60
2022-09-27T06:31:08.175Z,2.40
2022-09-27T06:33:42.785Z,2.33
2022-09-27T06:36:11.578Z,1.77
2022-09-27T06:38:42.020Z,2.60
2022-09-27T06:41:16.380Z,9.88
2022-09-27T06:44:06.977Z,3.38
2022-09-27T06:46:55.064Z,7.63
2022-09-27T06:49:32.654Z,3.80
2022-09-27T06:52:01.728Z,3.80
2022-09-27T06:54:30.061Z,15.95
2022-09-27T06:57:02.367Z,7.32
2022-09-27T06:59:48.949Z,3.90
2022-09-27T07:02:36.019Z,4.57
2022-09-27T07:05:25.810Z,3.20
2022-09-27T07:08:19.988Z,3.20
2022-09-27T07:10:48.583Z,4.28
2022-09-27T07:13:17.213Z,4.47
2022-09-27T07:15:45.517Z,1.85
2022-09-27T07:18:16.446Z,2.97
2022-09-27T07:20:46.039Z,1.65
2022-09-27T07:23:15.751Z,2.60
2022-09-27T07:25:44.200Z,5.78
2022-09-27T07:28:18.459Z,1.92
2022-09-27T07:30:50.244Z,3.10
2022-09-27T07:33:18.600Z,2.95
2022-09-27T07:35:48.208Z,3.63
2022-09-27T07:38:16.690Z,2.65
2022-09-27T07:40:45.145Z,1.80
2022-09-27T07:43:13.551Z,1.40
2022-09-27T07:45:42.027Z,2.70
2022-09-27T07:48:33.297Z,5.88
2022-09-27T07:51:21.611Z,2.42
2022-09-27T07:53:53.662Z,3.22
2022-09-27T07:56:40.494Z,2.33
2022-09-27T07:59:11.844Z,3.58
2022-09-27T08:01:40.226Z,2.83
2022-09-27T08:04:08.517Z,3.55
2022-09-27T08:06:38.369Z,2.40
2022-09-27T08:09:09.682Z,0.68
2022-09-27T08:11:39.252Z,2.45
2022-09-27T08:14:08.787Z,1.88
2022-09-27T08:16:37.221Z,1.23
2022-09-27T08:19:18.156Z,6.72
2022-09-27T08:22:05.020Z,2.20
2022-09-27T08:24:51.680Z,1.13
2022-09-27T08:27:34.669Z,2.17
2022-09-27T08:30:10.377Z,5.85
2022-09-27T08:32:38.677Z,1.67
2022-09-27T08:35:08.734Z,4.88
2022-09-27T08:37:38.311Z,2.17
2022-09-27T08:40:08.024Z,3.15
2022-09-27T08:42:41.201Z,2.85
2022-09-27T08:45:12.311Z,2.20
2022-09-27T08:47:43.569Z,3.55
2022-09-27T08:50:19.991Z,3.83
2022-09-27T08:52:53.485Z,1.70
2022-09-27T08:55:29.789Z,1.75
2022-09-27T08:57:59.016Z,1.70
2022-09-27T09:00:30.263Z,3.33
2022-09-27T09:02:59.276Z,2.40
2022-09-27T09:05:31.575Z,7.85
2022-09-27T09:08:18.431Z,2.00
2022-09-27T09:11:08.920Z,1.80
2022-09-27T09:13:45.840Z,1.90
2022-09-27T09:16:19.582Z,1.52
2022-09-27T09:18:59.084Z,1.80
2022-09-27T09:22:01.418Z,1.80
2022-09-27T09:24:44.530Z,1.15
2022-09-27T09:27:18.503Z,2.13
2022-09-27T09:29:55.130Z,3.28
2022-09-27T09:32:30.097Z,1.90
2022-09-27T09:35:00.880Z,3.75
2022-09-27T09:37:35.102Z,1.52
2022-09-27T09:40:09.387Z,2.00
2022-09-27T09:42:41.140Z,3.53
2022-09-27T09:45:16.653Z,2.28
2022-09-27T09:47:49.461Z,4.43
2022-09-27T09:50:19.682Z,1.80
2022-09-27T09:52:50.349Z,2.25
2022-09-27T09:55:22.937Z,4.07
2022-09-27T09:57:58.136Z,2.63
2022-09-27T10:00:29.655Z,2.10
2022-09-27T10:03:00.759Z,1.60
2022-09-27T10:05:30.246Z,4.18
2022-09-27T10:08:04.409Z,1.73
2022-09-27T10:10:34.414Z,1.70
2022-09-27T10:13:22.657Z,4.15
2022-09-27T10:16:02.344Z,0.55
2022-09-27T10:18:30.959Z,3.63
2022-09-27T10:21:01.803Z,1.88
2022-09-27T10:23:30.341Z,3.17
2022-09-27T10:26:21.535Z,0.80
2022-09-27T10:28:52.200Z,2.55
2022-09-27T10:31:37.468Z,1.23
2022-09-27T10:34:19.425Z,1.58
2022-09-27T10:37:04.040Z,3.65
2022-09-27T10:39:33.813Z,1.00
2022-09-27T10:42:03.791Z,1.42
2022-09-27T10:44:40.889Z,1.38
2022-09-27T10:47:29.911Z,1.67
2022-09-27T10:50:45.862Z,1.80
2022-09-27T10:53:38.311Z,1.48
2022-09-27T10:56:21.802Z,2.67
2022-09-27T10:58:51.915Z,1.77
2022-09-27T11:01:21.579Z,1.88
2022-09-27T11:04:04.172Z,1.17
2022-09-27T11:06:38.162Z,2.08
2022-09-27T11:09:14.155Z,1.25
2022-09-27T11:11:45.197Z,4.07
2022-09-27T11:14:20.978Z,1.83
2022-09-27T11:16:52.564Z,1.55
2022-09-27T11:19:27.528Z,4.03
2022-09-27T11:21:59.275Z,3.28
2022-09-27T11:24:33.347Z,3.88
2022-09-27T11:27:06.243Z,1.60
2022-09-27T11:29:41.202Z,1.60
2022-09-27T11:32:31.853Z,1.77
2022-09-27T11:35:08.829Z,1.90
2022-09-27T11:37:44.304Z,1.15
2022-09-27T11:40:17.319Z,2.10
2022-09-27T11:42:53.320Z,3.08
2022-09-27T11:45:45.469Z,2.15
2022-09-27T11:48:22.220Z,2.80
2022-09-27T11:50:57.367Z,1.42
2022-09-27T11:53:33.841Z,3.90
2022-09-27T11:56:10.447Z,2.55
2022-09-27T11:58:44.464Z,1.55
2022-09-27T12:01:20.271Z,2.97
2022-09-27T12:04:06.605Z,2.47
2022-09-27T12:06:41.604Z,1.92
2022-09-27T12:09:12.093Z,3.13
2022-09-27T12:11:42.861Z,2.30
2022-09-27T12:14:17.663Z,3.78
2022-09-27T12:16:49.754Z,2.05
2022-09-27T12:19:20.819Z,2.42
2022-09-27T12:22:03.853Z,2.72
2022-09-27T12:24:34.392Z,2.20
2022-09-27T12:27:15.547Z,3.72
2022-09-27T12:29:45.170Z,3.05
2022-09-27T12:32:17.746Z,5.60
2022-09-27T12:34:49.723Z,3.13
2022-09-27T12:37:20.087Z,2.88
2022-09-27T12:39:52.238Z,2.33
2022-09-27T12:42:26.849Z,3.03
2022-09-27T12:45:00.664Z,2.42
2022-09-27T12:47:40.897Z,3.25
2022-09-27T12:50:23.775Z,3.17
2022-09-27T12:52:54.720Z,4.47
2022-09-27T12:55:37.132Z,3.42
2022-09-27T12:58:13.832Z,3.78
2022-09-27T13:00:45.310Z,3.13
2022-09-27T13:03:26.129Z,5.28
2022-09-27T13:06:23.372Z,2.22
2022-09-27T13:09:02.544Z,3.13
2022-09-27T13:11:43.069Z,3.60
2022-09-27T13:14:16.693Z,3.80
2022-09-27T13:16:46.417Z,2.95
2022-09-27T13:19:35.093Z,2.95
2022-09-27T13:22:05.354Z,1.50
2022-09-27T13:24:59.947Z,3.13
2022-09-27T13:27:56.871Z,3.08
2022-09-27T13:30:47.980Z,2.65
2022-09-27T13:33:46.401Z,5.40
2022-09-27T13:36:22.657Z,4.03
2022-09-27T13:39:01.188Z,2.67
2022-09-27T13:41:35.235Z,3.72
2022-09-27T13:44:07.259Z,1.80
2022-09-27T13:46:52.868Z,2.80
2022-09-27T13:49:23.206Z,2.60
2022-09-27T13:52:19.850Z,4.03
2022-09-27T13:54:56.649Z,3.58
2022-09-27T13:57:50.145Z,6.65
2022-09-27T14:00:22.996Z,3.83
2022-09-27T14:02:59.575Z,3.45
2022-09-27T14:05:31.040Z,3.38
2022-09-27T14:08:02.272Z,2.97
2022-09-27T14:10:32.615Z,2.00
2022-09-27T14:13:05.275Z,1.98
2022-09-27T14:15:37.247Z,2.50
2022-09-27T14:18:06.465Z,4.15
2022-09-27T14:20:36.001Z,5.20
2022-09-27T14:23:06.272Z,1.48
2022-09-27T14:25:45.876Z,1.15
2022-09-27T14:28:20.885Z,3.42
2022-09-27T14:31:17.374Z,1.70
2022-09-27T14:34:08.142Z,1.45
2022-09-27T14:36:55.890Z,2.35
2022-09-27T14:39:28.894Z,2.17
2022-09-27T14:41:58.718Z,6.47
2022-09-27T14:44:28.518Z,2.13
2022-09-27T14:47:10.076Z,1.65
2022-09-27T14:49:48.003Z,2.00
2022-09-27T14:52:18.358Z,4.55
2022-09-27T14:54:47.869Z,2.13
2022-09-27T14:57:18.308Z,6.90
2022-09-27T14:59:48.205Z,1.42
2022-09-27T15:02:20.042Z,3.42
2022-09-27T15:04:51.339Z,1.92
2022-09-27T15:07:22.126Z,3.78
2022-09-27T15:09:51.847Z,5.65
2022-09-27T15:12:25.135Z,1.90
2022-09-27T15:14:55.021Z,2.75
2022-09-27T15:17:25.236Z,2.92
2022-09-27T15:20:03.497Z,6.22
2022-09-27T15:22:36.352Z,4.63
2022-09-27T15:25:09.875Z,4.22
2022-09-27T15:27:40.073Z,5.40
2022-09-27T15:30:08.815Z,2.53
2022-09-27T15:32:37.063Z,3.30
2022-09-27T15:35:08.609Z,4.97
2022-09-27T15:37:37.913Z,2.63
2022-09-27T15:40:30.895Z,2.83
2022-09-27T15:43:01.921Z,1.95
2022-09-27T15:45:30.937Z,3.90
2022-09-27T15:48:07.441Z,2.75
2022-09-27T15:50:36.909Z,2.67
2022-09-27T15:53:06.690Z,3.47
2022-09-27T15:55:37.139Z,2.45
2022-09-27T15:58:08.157Z,2.33
2022-09-27T16:00:37.234Z,2.55
2022-09-27T16:03:05.873Z,1.45
2022-09-27T16:05:34.189Z,3.10
2022-09-27T16:08:02.731Z,2.17
2022-09-27T16:10:37.593Z,2.38
2022-09-27T16:13:07.560Z,2.78
2022-09-27T16:15:35.847Z,3.20
2022-09-27T16:18:04.098Z,4.30
2022-09-27T16:20:32.551Z,2.83
2022-09-27T16:23:00.991Z,2.75
2022-09-27T16:25:29.357Z,2.55
2022-09-27T16:27:59.329Z,2.92
2022-09-27T16:30:29.789Z,2.63
2022-09-27T16:32:59.149Z,3.10
2022-09-27T16:35:28.147Z,5.22
2022-09-27T16:37:58.221Z,4.13
2022-09-27T16:40:28.153Z,9.20
2022-09-27T16:42:56.500Z,10.02
2022-09-27T16:45:34.023Z,11.23
2022-09-27T16:48:03.702Z,9.48
2022-09-27T16:50:49.635Z,7.13
2022-09-27T16:53:17.991Z,6.72
2022-09-27T16:55:46.250Z,4.32
2022-09-27T16:58:14.566Z,4.95
2022-09-27T17:00:43.199Z,4.32
2022-09-27T17:03:12.936Z,9.23
2022-09-27T17:05:49.761Z,4.20
2022-09-27T17:08:18.634Z,7.07
2022-09-27T17:10:47.027Z,11.50
2022-09-27T17:13:15.269Z,24.77
2022-09-27T17:15:43.598Z,20.27
2022-09-27T17:18:13.202Z,54.67
2022-09-27T17:20:41.507Z,35.47
2022-09-27T17:23:09.785Z,9.20
2022-09-27T17:25:38.527Z,4.07
2022-09-27T17:28:06.778Z,3.95
2022-09-27T17:30:35.194Z,4.20
2022-09-27T17:33:03.520Z,3.58
2022-09-27T17:35:33.137Z,3.85
2022-09-27T17:38:01.708Z,4.30
2022-09-27T17:40:30.027Z,4.32
2022-09-27T17:42:59.051Z,5.00
2022-09-27T17:45:27.300Z,4.32
2022-09-27T17:48:13.821Z,6.05
2022-09-27T17:50:47.736Z,6.57
2022-09-27T17:53:16.131Z,4.75
2022-09-27T17:55:45.360Z,23.27
2022-09-27T17:58:13.599Z,12.82
2022-09-27T18:00:41.859Z,9.35
2022-09-27T18:03:10.218Z,7.20
2022-09-27T18:05:38.580Z,8.60
2022-09-27T18:08:08.248Z,4.95
2022-09-27T18:10:37.418Z,4.68
2022-09-27T18:13:07.035Z,7.63
2022-09-27T18:15:37.142Z,4.63
2022-09-27T18:18:05.918Z,6.00
2022-09-27T18:20:35.222Z,4.30
2022-09-27T18:23:03.466Z,6.28
2022-09-27T18:25:37.509Z,4.93
2022-09-27T18:28:05.750Z,4.65
2022-09-27T18:30:34.903Z,4.10
2022-09-27T18:33:03.137Z,4.32
2022-09-27T18:35:31.397Z,6.05
2022-09-27T18:37:59.699Z,9.10
2022-09-27T18:40:51.567Z,12.95
2022-09-27T18:43:17.606Z,30.98
2022-09-27T18:45:45.929Z,13.38
2022-09-27T18:48:14.248Z,11.32
2022-09-27T18:50:42.578Z,9.48
2022-09-27T18:53:10.996Z,7.43
2022-09-27T18:55:39.859Z,5.80
2022-09-27T18:58:08.132Z,6.18
2022-09-27T19:00:37.882Z,3.80
2022-09-27T19:03:06.318Z,6.47
2022-09-27T19:05:34.604Z,4.80
2022-09-27T19:08:03.165Z,5.22
2022-09-27T19:10:31.404Z,7.18
2022-09-27T19:13:00.991Z,4.63
2022-09-27T19:15:29.369Z,9.25
2022-09-27T19:17:58.975Z,4.00
2022-09-27T19:20:27.312Z,5.68
2022-09-27T19:22:55.552Z,3.92
2022-09-27T19:25:23.832Z,5.88
2022-09-27T19:27:52.579Z,3.30
2022-09-27T19:30:21.005Z,7.07
2022-09-27T19:32:49.628Z,4.10
2022-09-27T19:35:19.275Z,4.10
2022-09-27T19:37:47.519Z,4.57
2022-09-27T19:40:15.990Z,4.75
2022-09-27T19:42:44.293Z,4.70
2022-09-27T19:45:12.857Z,5.65
2022-09-27T19:47:41.115Z,5.00
2022-09-27T19:50:10.137Z,6.75
2022-09-27T19:52:40.020Z,4.15
2022-09-27T19:55:08.939Z,6.50
2022-09-27T19:57:37.268Z,24.85
2022-09-27T20:00:06.388Z,14.40
2022-09-27T20:02:34.771Z,15.00
2022-09-27T20:05:03.239Z,17.33
2022-09-27T20:07:34.837Z,13.02
2022-09-27T20:10:04.962Z,17.73
2022-09-27T20:12:33.365Z,31.60
2022-09-27T20:15:01.751Z,23.85
2022-09-27T20:17:32.755Z,50.40
2022-09-27T20:20:01.208Z,71.97
2022-09-27T20:22:29.555Z,55.90
2022-09-27T20:24:57.804Z,23.05
2022-09-27T20:27:27.577Z,27.88
2022-09-27T20:29:57.060Z,20.67
2022-09-27T20:32:28.162Z,30.80
2022-09-27T20:34:56.915Z,15.35
2022-09-27T20:37:25.491Z,26.75
2022-09-27T20:39:53.772Z,42.17
2022-09-27T20:42:22.033Z,16.58
2022-09-27T20:44:54.360Z,9.93
2022-09-27T20:47:23.220Z,31.80
2022-09-27T20:49:51.718Z,14.23
2022-09-27T20:52:20.519Z,25.75
2022-09-27T20:54:48.773Z,12.50
2022-09-27T20:57:17.025Z,15.48
2022-09-27T20:59:45.281Z,5.22
2022-09-27T21:02:15.040Z,7.22
2022-09-27T21:04:43.415Z,6.95
2022-09-27T21:07:11.746Z,9.45
2022-09-27T21:09:40.044Z,7.15
2022-09-27T21:12:08.441Z,7.43
2022-09-27T21:14:36.685Z,7.95
2022-09-27T21:17:04.932Z,6.03
2022-09-27T21:19:34.878Z,5.90
2022-09-27T21:22:03.132Z,6.15
2022-09-27T21:24:31.400Z,5.70
2022-09-27T21:27:00.271Z,5.47
2022-09-27T21:29:28.540Z,8.13
2022-09-27T21:31:56.886Z,7.10
2022-09-27T21:34:25.234Z,6.70
2022-09-27T21:36:54.875Z,6.72
2022-09-27T21:39:23.107Z,4.53
2022-09-27T21:41:51.374Z,8.30
2022-09-27T21:44:19.703Z,5.78
2022-09-27T21:46:48.090Z,4.13
2022-09-27T21:49:16.483Z,6.57
2022-09-27T21:51:44.821Z,5.65
2022-09-27T21:54:15.924Z,7.20
2022-09-27T21:56:45.386Z,5.95
2022-09-27T21:59:15.063Z,5.68
2022-09-27T22:01:44.555Z,7.35
2022-09-27T22:04:13.632Z,6.75
2022-09-27T22:06:41.882Z,7.57
2022-09-27T22:09:13.516Z,9.63
2022-09-27T22:11:46.184Z,5.30
2022-09-27T22:14:15.174Z,5.82
2022-09-27T22:16:43.475Z,5.78
2022-09-27T22:19:12.312Z,5.15
2022-09-27T22:21:41.181Z,4.95
2022-09-27T22:24:10.389Z,5.78
2022-09-27T22:26:39.554Z,5.05
2022-09-27T22:29:09.343Z,4.03
2022-09-27T22:31:38.233Z,5.68
2022-09-27T22:34:07.812Z,5.20
2022-09-27T22:36:36.544Z,11.98
2022-09-27T22:39:04.950Z,7.72
2022-09-27T22:41:33.178Z,4.38
2022-09-27T22:44:01.617Z,5.05
2022-09-27T22:46:31.280Z,6.82
2022-09-27T22:48:59.656Z,4.93
2022-09-27T22:51:27.923Z,6.22
2022-09-27T22:53:56.215Z,4.60
2022-09-27T22:56:24.478Z,7.25
2022-09-27T22:58:53.000Z,4.32
2022-09-27T23:01:22.039Z,4.70
2022-09-27T23:03:53.011Z,4.57
2022-09-27T23:06:22.090Z,6.95
2022-09-27T23:08:51.184Z,6.38
2022-09-27T23:11:20.578Z,6.18
2022-09-27T23:13:49.474Z,5.07
2022-09-27T23:16:19.952Z,5.20
2022-09-27T23:18:48.623Z,11.60
2022-09-27T23:21:18.263Z,5.00
2022-09-27T23:23:47.468Z,4.32
2022-09-27T23:26:17.248Z,3.85
2022-09-27T23:28:45.899Z,6.18
2022-09-27T23:31:14.791Z,6.78
2022-09-27T23:33:44.247Z,6.38
2022-09-27T23:36:14.935Z,7.47
2022-09-27T23:38:45.555Z,6.32
2022-09-27T23:41:14.188Z,5.32
2022-09-27T23:43:44.326Z,4.78
2022-09-27T23:46:12.835Z,5.90
2022-09-27T23:48:41.174Z,8.63
2022-09-27T23:51:10.969Z,3.80
2022-09-27T23:53:39.586Z,4.80
2022-09-27T23:56:10.273Z,3.90
2022-09-27T23:58:39.566Z,5.57
